createdAt,value
2023-05-02T00:00:04.022Z,101402.19
2023-05-02T00:03:06.418Z,101399.66
2023-05-02T00:06:08.595Z,101392.69
2023-05-02T00:09:10.195Z,101391.94
2023-05-02T00:12:11.789Z,101395.66
2023-05-02T00:15:13.399Z,101390.41
2023-05-02T00:18:15.136Z,101389.56
2023-05-02T00:21:16.676Z,101395.84
2023-05-02T00:24:18.764Z,101405.63
2023-05-02T00:27:20.542Z,101403.19
2023-05-02T00:30:22.080Z,101396.22
2023-05-02T00:33:23.616Z,101398.03
2023-05-02T00:36:25.154Z,101403.44
2023-05-02T00:39:26.767Z,101403.53
2023-05-02T00:42:31.511Z,101415.25
2023-05-02T00:45:33.127Z,101424.19
2023-05-02T00:48:35.621Z,101413.72
2023-05-02T00:51:37.335Z,101420.28
2023-05-02T00:54:41.892Z,101422.38
2023-05-02T00:57:43.704Z,101416.34
2023-05-02T01:01:00.227Z,101421.88
2023-05-02T01:04:11.332Z,101422.34
2023-05-02T01:07:58.012Z,101419.84
2023-05-02T01:11:15.259Z,101421.81
2023-05-02T01:14:18.449Z,101419.34
2023-05-02T01:17:23.037Z,101418.56
2023-05-02T01:20:28.704Z,101424.09
2023-05-02T01:23:30.257Z,101426.16
2023-05-02T01:26:46.205Z,101435.38
2023-05-02T01:29:51.323Z,101434.03
2023-05-02T01:32:55.515Z,101439.59
2023-05-02T01:35:57.957Z,101440.88
2023-05-02T01:39:01.555Z,101452.66
2023-05-02T01:42:05.241Z,101451.19
2023-05-02T01:45:09.132Z,101462.22
2023-05-02T01:48:11.896Z,101470.69
2023-05-02T01:51:17.489Z,101470.34
2023-05-02T01:54:23.032Z,101472.75
2023-05-02T01:57:25.355Z,101485.69
2023-05-02T02:00:29.428Z,101491.41
2023-05-02T02:03:31.454Z,101490.28
2023-05-02T02:06:34.260Z,101519.94
2023-05-02T02:09:36.152Z,101516.81
2023-05-02T02:12:51.143Z,101529.75
2023-05-02T02:15:57.890Z,101523.91
2023-05-02T02:19:06.039Z,101529.59
2023-05-02T02:22:09.735Z,101526.19
2023-05-02T02:25:14.555Z,101530.00
2023-05-02T02:28:16.302Z,101538.09
2023-05-02T02:31:17.903Z,101538.22
2023-05-02T02:34:20.526Z,101545.44
2023-05-02T02:37:45.835Z,101549.97
2023-05-02T02:40:57.478Z,101556.22
2023-05-02T02:44:12.930Z,101559.03
2023-05-02T02:47:32.258Z,101567.16
2023-05-02T02:50:43.884Z,101572.78
2023-05-02T02:54:12.394Z,101588.16
2023-05-02T02:57:58.098Z,101606.13
2023-05-02T03:01:03.825Z,101597.59
2023-05-02T03:04:07.588Z,101611.16
2023-05-02T03:07:09.582Z,101617.69
2023-05-02T03:10:11.952Z,101621.50
2023-05-02T03:13:13.721Z,101625.25
2023-05-02T03:16:39.892Z,101630.81
2023-05-02T03:19:41.536Z,101646.06
2023-05-02T03:22:43.221Z,101655.16
2023-05-02T03:25:44.770Z,101649.19
2023-05-02T03:28:46.977Z,101649.31
2023-05-02T03:31:48.817Z,101661.81
2023-05-02T03:34:50.420Z,101660.16
2023-05-02T03:37:52.015Z,101663.94
2023-05-02T03:40:57.273Z,101663.38
2023-05-02T03:43:58.851Z,101668.00
2023-05-02T03:47:00.514Z,101673.56
2023-05-02T03:50:03.425Z,101679.03
2023-05-02T03:53:04.977Z,101683.53
2023-05-02T03:56:08.096Z,101688.13
2023-05-02T03:59:09.942Z,101684.69
2023-05-02T04:02:12.293Z,101696.28
2023-05-02T04:05:13.893Z,101699.84
2023-05-02T04:08:15.436Z,101714.13
2023-05-02T04:11:17.023Z,101709.81
2023-05-02T04:14:18.766Z,101721.41
2023-05-02T04:17:21.499Z,101723.31
2023-05-02T04:20:23.027Z,101733.97
2023-05-02T04:23:24.597Z,101735.03
2023-05-02T04:26:27.099Z,101743.91
2023-05-02T04:29:28.743Z,101743.91
2023-05-02T04:32:30.330Z,101746.63
2023-05-02T04:35:31.951Z,101755.50
2023-05-02T04:38:33.535Z,101756.56
2023-05-02T04:41:35.153Z,101770.06
2023-05-02T04:44:36.777Z,101754.41
2023-05-02T04:47:38.359Z,101767.03
2023-05-02T04:50:39.972Z,101768.97
2023-05-02T04:53:41.839Z,101782.25
2023-05-02T04:56:43.394Z,101782.31
2023-05-02T04:59:45.322Z,101784.19
2023-05-02T05:02:46.939Z,101799.28
2023-05-02T05:05:48.693Z,101798.41
2023-05-02T05:08:50.357Z,101812.59
2023-05-02T05:11:51.915Z,101815.31
2023-05-02T05:14:53.527Z,101822.47
2023-05-02T05:17:55.133Z,101820.72
2023-05-02T05:20:56.721Z,101826.03
2023-05-02T05:23:58.311Z,101825.09
2023-05-02T05:27:00.017Z,101837.41
2023-05-02T05:30:02.328Z,101841.84
2023-05-02T05:33:04.284Z,101842.50
2023-05-02T05:36:11.281Z,101852.97
2023-05-02T05:39:13.356Z,101853.03
2023-05-02T05:42:14.899Z,101857.53
2023-05-02T05:45:17.320Z,101865.47
2023-05-02T05:48:18.936Z,101874.34
2023-05-02T05:51:20.848Z,101883.28
2023-05-02T05:54:22.567Z,101891.31
2023-05-02T05:57:24.223Z,101892.28
2023-05-02T06:00:25.771Z,101897.66
2023-05-02T06:03:28.131Z,101898.38
2023-05-02T06:06:30.160Z,101907.97
2023-05-02T06:09:31.809Z,101909.75
2023-05-02T06:12:33.817Z,101912.44
2023-05-02T06:15:35.680Z,101918.59
2023-05-02T06:18:38.504Z,101921.31
2023-05-02T06:21:41.416Z,101923.97
2023-05-02T06:24:44.147Z,101929.28
2023-05-02T06:27:46.030Z,101927.59
2023-05-02T06:30:47.587Z,101940.06
2023-05-02T06:33:49.118Z,101948.03
2023-05-02T06:36:55.738Z,101942.75
2023-05-02T06:39:57.354Z,101949.88
2023-05-02T06:42:58.943Z,101956.97
2023-05-02T06:46:01.070Z,101955.19
2023-05-02T06:49:02.659Z,101967.53
2023-05-02T06:52:04.269Z,101967.53
2023-05-02T06:55:06.344Z,101981.53
2023-05-02T06:58:08.358Z,101986.72
2023-05-02T07:01:10.120Z,101993.63
2023-05-02T07:04:11.802Z,101999.69
2023-05-02T07:07:13.797Z,101991.56
2023-05-02T07:10:15.383Z,101996.69
2023-05-02T07:13:16.920Z,101998.34
2023-05-02T07:16:18.508Z,101998.16
2023-05-02T07:19:20.145Z,102000.72
2023-05-02T07:22:21.715Z,102004.16
2023-05-02T07:25:23.290Z,102007.56
2023-05-02T07:28:24.946Z,102013.69
2023-05-02T07:31:26.595Z,102023.25
2023-05-02T07:34:28.163Z,102024.06
2023-05-02T07:37:34.705Z,102035.53
2023-05-02T07:40:36.415Z,102036.28
2023-05-02T07:43:38.007Z,102044.94
2023-05-02T07:46:39.678Z,102047.38
2023-05-02T07:49:41.577Z,102050.75
2023-05-02T07:52:43.445Z,102061.16
2023-05-02T07:55:45.268Z,102064.53
2023-05-02T07:58:46.826Z,102057.25
2023-05-02T08:01:48.434Z,102055.34
2023-05-02T08:04:51.207Z,102061.34
2023-05-02T08:07:52.976Z,102067.22
2023-05-02T08:10:54.563Z,102066.06
2023-05-02T08:13:56.318Z,102069.38
2023-05-02T08:16:58.658Z,102073.72
2023-05-02T08:20:03.768Z,102071.13
2023-05-02T08:23:05.354Z,102070.44
2023-05-02T08:26:07.051Z,102083.72
2023-05-02T08:29:11.577Z,102080.94
2023-05-02T08:32:13.309Z,102082.25
2023-05-02T08:35:15.034Z,102065.41
2023-05-02T08:38:17.488Z,102083.94
2023-05-02T08:41:19.723Z,102093.25
2023-05-02T08:44:21.366Z,102096.59
2023-05-02T08:47:25.603Z,102099.75
2023-05-02T08:50:28.387Z,102096.56
2023-05-02T08:53:32.711Z,102102.81
2023-05-02T08:56:34.263Z,102097.72
2023-05-02T08:59:35.969Z,102106.22
2023-05-02T09:03:01.897Z,102107.06
2023-05-02T09:06:21.114Z,102107.69
2023-05-02T09:09:23.101Z,102114.22
2023-05-02T09:12:27.307Z,102120.00
2023-05-02T09:15:33.118Z,102136.75
2023-05-02T09:18:42.064Z,102132.44
2023-05-02T09:21:45.020Z,102142.38
2023-05-02T09:24:55.726Z,102139.94
2023-05-02T09:27:58.989Z,102138.06
2023-05-02T09:31:08.419Z,102143.25
2023-05-02T09:34:18.984Z,102142.25
2023-05-02T09:37:37.150Z,102155.03
2023-05-02T09:40:39.628Z,102149.63
2023-05-02T09:43:42.920Z,102167.00
2023-05-02T09:46:47.513Z,102158.34
2023-05-02T09:49:50.518Z,102165.31
2023-05-02T09:53:06.516Z,102165.53
2023-05-02T09:56:08.461Z,102178.19
2023-05-02T09:59:17.156Z,102182.88
2023-05-02T10:02:21.930Z,102187.91
2023-05-02T10:05:23.787Z,102190.84
2023-05-02T10:08:27.663Z,102200.28
2023-05-02T10:11:32.024Z,102206.00
2023-05-02T10:14:39.930Z,102202.28
2023-05-02T10:17:46.638Z,102209.31
2023-05-02T10:20:56.753Z,102206.59
2023-05-02T10:23:59.265Z,102199.38
2023-05-02T10:27:02.498Z,102205.94
2023-05-02T10:30:06.718Z,102207.22
2023-05-02T10:33:08.539Z,102195.75
2023-05-02T10:36:14.600Z,102203.75
2023-05-02T10:39:16.496Z,102208.53
2023-05-02T10:42:20.745Z,102205.22
2023-05-02T10:45:35.450Z,102208.88
2023-05-02T10:48:38.568Z,102222.34
2023-05-02T10:51:42.072Z,102218.91
2023-05-02T10:54:43.758Z,102222.66
2023-05-02T10:57:57.453Z,102224.44
2023-05-02T11:01:25.053Z,102234.53
2023-05-02T11:04:46.729Z,102229.31
2023-05-02T11:07:48.458Z,102230.66
2023-05-02T11:10:50.069Z,102225.66
2023-05-02T11:13:51.696Z,102242.53
2023-05-02T11:16:59.883Z,102243.47
2023-05-02T11:20:01.781Z,102253.78
2023-05-02T11:23:16.023Z,102272.72
2023-05-02T11:26:23.196Z,102265.69
2023-05-02T11:29:54.620Z,102265.50
2023-05-02T11:32:59.321Z,102262.47
2023-05-02T11:36:01.741Z,102276.13
2023-05-02T11:39:05.894Z,102277.34
2023-05-02T11:42:07.663Z,102275.63
2023-05-02T11:45:10.164Z,102272.03
2023-05-02T11:48:16.500Z,102269.09
2023-05-02T11:51:23.115Z,102269.53
2023-05-02T11:54:24.803Z,102273.19
2023-05-02T11:57:26.482Z,102270.53
2023-05-02T12:00:28.741Z,102271.13
2023-05-02T12:03:32.517Z,102273.00
2023-05-02T12:06:34.873Z,102263.97
2023-05-02T12:09:36.617Z,102279.63
2023-05-02T12:12:39.877Z,102270.72
2023-05-02T12:15:42.139Z,102281.06
2023-05-02T12:18:44.125Z,102285.56
2023-05-02T12:21:46.200Z,102282.06
2023-05-02T12:24:49.288Z,102284.56
2023-05-02T12:28:03.609Z,102296.06
2023-05-02T12:31:11.493Z,102305.22
2023-05-02T12:34:13.179Z,102301.16
2023-05-02T12:37:23.024Z,102307.84
2023-05-02T12:40:24.620Z,102304.44
2023-05-02T12:43:26.239Z,102296.44
2023-05-02T12:46:31.798Z,102304.09
2023-05-02T12:49:48.510Z,102313.72
2023-05-02T12:52:57.562Z,102322.63
2023-05-02T12:56:03.908Z,102329.56
2023-05-02T12:59:05.847Z,102328.47
2023-05-02T13:02:07.764Z,102338.22
2023-05-02T13:05:19.141Z,102339.94
2023-05-02T13:08:20.802Z,102339.69
2023-05-02T13:11:22.359Z,102336.78
2023-05-02T13:14:23.909Z,102334.44
2023-05-02T13:17:25.763Z,102333.13
2023-05-02T13:20:27.359Z,102343.50
2023-05-02T13:23:28.897Z,102346.09
2023-05-02T13:26:30.579Z,102350.59
2023-05-02T13:29:32.147Z,102348.13
2023-05-02T13:32:33.811Z,102348.41
2023-05-02T13:35:35.755Z,102369.97
2023-05-02T13:38:37.290Z,102357.63
2023-05-02T13:41:39.358Z,102358.28
2023-05-02T13:44:41.085Z,102348.34
2023-05-02T13:47:42.700Z,102355.31
2023-05-02T13:50:44.324Z,102355.41
2023-05-02T13:53:45.859Z,102363.31
2023-05-02T13:56:47.420Z,102359.88
2023-05-02T13:59:48.975Z,102367.88
2023-05-02T14:02:50.672Z,102367.88
2023-05-02T14:05:52.357Z,102366.44
2023-05-02T14:08:53.973Z,102364.97
2023-05-02T14:11:55.890Z,102374.66
2023-05-02T14:14:57.455Z,102376.22
2023-05-02T14:17:59.036Z,102377.81
2023-05-02T14:21:01.126Z,102378.41
2023-05-02T14:24:02.671Z,102383.78
2023-05-02T14:27:04.839Z,102384.00
2023-05-02T14:30:07.383Z,102378.22
2023-05-02T14:33:08.993Z,102383.00
2023-05-02T14:36:10.669Z,102390.25
2023-05-02T14:39:12.452Z,102390.47
2023-05-02T14:42:14.054Z,102400.38
2023-05-02T14:45:15.836Z,102407.66
2023-05-02T14:48:17.586Z,102406.03
2023-05-02T14:51:19.259Z,102401.78
2023-05-02T14:54:22.953Z,102399.22
2023-05-02T14:57:24.631Z,102406.25
2023-05-02T15:00:26.409Z,102401.78
2023-05-02T15:03:28.354Z,102401.78
2023-05-02T15:06:34.213Z,102403.78
2023-05-02T15:09:36.510Z,102407.53
2023-05-02T15:12:38.229Z,102405.00
2023-05-02T15:15:39.979Z,102416.75
2023-05-02T15:18:41.489Z,102409.78
2023-05-02T15:21:43.110Z,102409.91
2023-05-02T15:24:44.705Z,102420.53
2023-05-02T15:27:46.328Z,102418.72
2023-05-02T15:30:49.132Z,102413.53
2023-05-02T15:33:51.477Z,102410.78
2023-05-02T15:36:53.189Z,102408.91
2023-05-02T15:39:54.831Z,102414.06
2023-05-02T15:42:56.468Z,102413.00
2023-05-02T15:45:59.051Z,102418.91
2023-05-02T15:49:00.706Z,102420.25
2023-05-02T15:52:03.024Z,102426.03
2023-05-02T15:55:05.207Z,102425.78
2023-05-02T15:58:07.051Z,102419.44
2023-05-02T16:01:08.714Z,102428.31
2023-05-02T16:04:10.342Z,102435.25
2023-05-02T16:07:11.950Z,102443.16
2023-05-02T16:10:13.520Z,102444.91
2023-05-02T16:13:15.335Z,102436.03
2023-05-02T16:16:16.976Z,102441.38
2023-05-02T16:19:19.253Z,102437.66
2023-05-02T16:22:20.845Z,102460.78
2023-05-02T16:25:22.470Z,102460.31
2023-05-02T16:28:24.270Z,102456.31
2023-05-02T16:31:26.135Z,102454.69
2023-05-02T16:34:32.924Z,102455.78
2023-05-02T16:37:35.392Z,102452.44
2023-05-02T16:40:37.034Z,102444.69
2023-05-02T16:43:38.734Z,102453.88
2023-05-02T16:46:41.475Z,102449.56
2023-05-02T16:49:43.057Z,102453.28
2023-05-02T16:52:44.608Z,102462.28
2023-05-02T16:55:46.145Z,102458.06
2023-05-02T16:58:47.696Z,102462.69
2023-05-02T17:01:50.126Z,102465.53
2023-05-02T17:04:51.844Z,102464.94
2023-05-02T17:07:53.396Z,102472.19
2023-05-02T17:10:56.243Z,102468.78
2023-05-02T17:13:57.796Z,102466.16
2023-05-02T17:17:00.820Z,102474.13
2023-05-02T17:20:03.033Z,102473.25
2023-05-02T17:23:05.546Z,102471.50
2023-05-02T17:26:14.179Z,102476.81
2023-05-02T17:29:15.903Z,102488.47
2023-05-02T17:32:17.453Z,102486.09
2023-05-02T17:35:18.995Z,102491.63
2023-05-02T17:38:20.558Z,102492.59
2023-05-02T17:41:22.450Z,102490.16
2023-05-02T17:44:24.030Z,102486.91
2023-05-02T17:47:25.794Z,102487.16
2023-05-02T17:50:27.413Z,102492.81
2023-05-02T17:53:29.280Z,102496.75
2023-05-02T17:56:30.839Z,102495.22
2023-05-02T17:59:32.392Z,102492.75
2023-05-02T18:02:36.620Z,102497.38
2023-05-02T18:05:44.164Z,102503.69
2023-05-02T18:08:46.011Z,102510.97
2023-05-02T18:11:48.642Z,102504.03
2023-05-02T18:14:52.567Z,102505.13
2023-05-02T18:17:56.724Z,102505.31
2023-05-02T18:20:58.854Z,102510.78
2023-05-02T18:24:01.520Z,102517.97
2023-05-02T18:27:03.234Z,102514.66
2023-05-02T18:30:05.840Z,102508.56
2023-05-02T18:33:08.201Z,102517.59
2023-05-02T18:36:09.828Z,102515.06
2023-05-02T18:39:11.489Z,102525.00
2023-05-02T18:42:13.159Z,102529.63
2023-05-02T18:45:14.999Z,102527.09
2023-05-02T18:48:16.600Z,102524.50
2023-05-02T18:51:18.459Z,102530.69
2023-05-02T18:54:20.244Z,102523.63
2023-05-02T18:57:21.968Z,102536.88
2023-05-02T19:00:24.459Z,102543.00
2023-05-02T19:03:26.893Z,102542.94
2023-05-02T19:06:29.487Z,102552.59
2023-05-02T19:09:31.155Z,102549.03
2023-05-02T19:12:32.743Z,102552.50
2023-05-02T19:15:34.339Z,102549.91
2023-05-02T19:18:35.906Z,102557.91
2023-05-02T19:21:37.569Z,102557.97
2023-05-02T19:24:39.178Z,102556.22
2023-05-02T19:27:42.202Z,102556.28
2023-05-02T19:30:44.828Z,102562.56
2023-05-02T19:33:51.665Z,102565.31
2023-05-02T19:36:53.296Z,102560.16
2023-05-02T19:39:54.906Z,102555.81
2023-05-02T19:42:56.465Z,102566.44
2023-05-02T19:45:58.890Z,102568.31
2023-05-02T19:49:00.601Z,102576.31
2023-05-02T19:52:02.766Z,102570.97
2023-05-02T19:55:04.888Z,102575.50
2023-05-02T19:58:06.540Z,102577.34
2023-05-02T20:01:08.218Z,102580.09
2023-05-02T20:04:09.820Z,102574.84
2023-05-02T20:07:11.365Z,102571.44
2023-05-02T20:10:13.164Z,102579.44
2023-05-02T20:13:15.371Z,102573.41
2023-05-02T20:16:17.057Z,102574.38
2023-05-02T20:19:19.990Z,102587.81
2023-05-02T20:22:23.041Z,102586.28
2023-05-02T20:25:25.119Z,102591.78
2023-05-02T20:28:26.768Z,102592.84
2023-05-02T20:31:28.337Z,102586.81
2023-05-02T20:34:30.215Z,102587.06
2023-05-02T20:37:32.341Z,102589.03
2023-05-02T20:40:34.026Z,102577.69
2023-05-02T20:43:36.266Z,102595.53
2023-05-02T20:46:38.155Z,102586.81
2023-05-02T20:49:39.887Z,102595.81
2023-05-02T20:52:41.593Z,102594.13
2023-05-02T20:55:43.206Z,102594.25
2023-05-02T20:58:44.732Z,102597.84
2023-05-02T21:01:47.657Z,102600.50
2023-05-02T21:04:49.230Z,102596.97
2023-05-02T21:07:50.807Z,102596.94
2023-05-02T21:10:53.211Z,102604.91
2023-05-02T21:13:54.766Z,102603.09
2023-05-02T21:16:56.554Z,102601.31
2023-05-02T21:19:59.868Z,102596.91
2023-05-02T21:23:03.238Z,102595.09
2023-05-02T21:26:06.908Z,102603.91
2023-05-02T21:29:10.753Z,102599.53
2023-05-02T21:32:12.941Z,102603.09
2023-05-02T21:35:14.691Z,102596.91
2023-05-02T21:38:16.239Z,102604.84
2023-05-02T21:41:17.829Z,102607.50
2023-05-02T21:44:19.771Z,102605.81
2023-05-02T21:47:21.634Z,102600.50
2023-05-02T21:50:23.802Z,102600.56
2023-05-02T21:53:27.095Z,102606.00
2023-05-02T21:56:28.633Z,102606.06
2023-05-02T21:59:30.129Z,102602.63
2023-05-02T22:02:31.825Z,102601.84
2023-05-02T22:05:39.915Z,102603.16
2023-05-02T22:08:41.643Z,102607.44
2023-05-02T22:11:43.380Z,102601.31
2023-05-02T22:14:45.984Z,102603.16
2023-05-02T22:17:48.376Z,102606.97
2023-05-02T22:20:49.996Z,102610.63
2023-05-02T22:23:51.638Z,102610.09
2023-05-02T22:26:55.360Z,102616.53
2023-05-02T22:29:57.149Z,102609.53
2023-05-02T22:32:58.832Z,102604.56
2023-05-02T22:36:00.431Z,102612.00
2023-05-02T22:39:01.987Z,102619.50
2023-05-02T22:42:03.637Z,102619.84
2023-05-02T22:45:07.647Z,102611.28
2023-05-02T22:48:09.362Z,102618.66
2023-05-02T22:51:11.029Z,102617.16
2023-05-02T22:54:14.982Z,102616.59
2023-05-02T22:57:16.539Z,102619.56
2023-05-02T23:00:18.118Z,102613.66
2023-05-02T23:03:19.933Z,102620.97
2023-05-02T23:06:21.611Z,102623.00
2023-05-02T23:09:23.248Z,102624.13
2023-05-02T23:12:24.777Z,102631.41
2023-05-02T23:15:26.655Z,102633.41
2023-05-02T23:18:28.249Z,102626.50
2023-05-02T23:21:29.861Z,102630.19
2023-05-02T23:24:31.778Z,102632.06
2023-05-02T23:27:33.365Z,102631.28
2023-05-02T23:30:37.920Z,102634.03
2023-05-02T23:33:40.471Z,102632.34
2023-05-02T23:36:42.225Z,102638.56
2023-05-02T23:39:43.853Z,102644.81
2023-05-02T23:42:46.022Z,102633.34
2023-05-02T23:45:47.742Z,102635.16
2023-05-02T23:48:49.281Z,102644.88
2023-05-02T23:51:50.855Z,102641.44
2023-05-02T23:54:52.727Z,102641.44
2023-05-02T23:57:54.367Z,102644.16
